Time;durP1;ratioP1;P1;durP2;ratioP2;P2;SDS_P1;SDS_P2;PMS_P1;PMS_P2;Temp;Humidity;BMP_temperature;BMP_pressure;BME280_temperature;BME280_humidity;BME280_pressure;Samples;Min_cycle;Max_cycle;Signal;HPM_P1;HPM_P2
2021/04/15 00:04:39;;;;;;;1.85;0.40;;;4.50;99.90;;;;;;13078615;22;20033;-49
2021/04/15 00:10:00;;;;;;;1.17;0.57;;;4.60;99.90;;;;;;13080531;22;20021;-49
2021/04/15 00:15:21;;;;;;;1.10;0.30;;;4.60;99.90;;;;;;13080647;22;20015;-49
2021/04/15 00:20:42;;;;;;;1.05;0.50;;;4.70;99.90;;;;;;13080478;22;20445;-49
2021/04/15 00:26:05;;;;;;;1.05;0.30;;;4.80;99.90;;;;;;13078239;22;20405;-49
2021/04/15 00:31:28;;;;;;;1.00;0.22;;;4.90;99.90;;;;;;13083596;22;20015;-49
2021/04/15 00:36:49;;;;;;;0.50;0.10;;;4.90;99.90;;;;;;13082751;22;20388;-49
2021/04/15 00:42:10;;;;;;;0.68;0.30;;;4.80;99.90;;;;;;13081067;22;20010;-49
2021/04/15 00:47:31;;;;;;;0.60;0.17;;;4.70;99.90;;;;;;13080175;22;20022;-49
2021/04/15 00:52:56;;;;;;;5.53;0.65;;;4.60;99.90;;;;;;13079287;22;20422;-49
2021/04/15 00:58:17;;;;;;;0.05;0.00;;;4.40;99.90;;;;;;13084483;22;20450;-49
2021/04/15 01:03:38;;;;;;;0.90;0.25;;;4.30;99.90;;;;;;13082037;22;20091;-49
2021/04/15 01:09:00;;;;;;;0.15;0.05;;;4.10;99.90;;;;;;13082767;22;20078;-49
2021/04/15 01:14:23;;;;;;;1.48;0.30;;;4.00;99.90;;;;;;13086824;22;20053;-49
2021/04/15 01:20:21;;;;;;;0.82;0.70;;;4.00;99.90;;;;;;13082225;22;20089;-49
2021/04/15 01:26:05;;;;;;;1.20;0.63;;;3.90;99.90;;;;;;13079917;22;20090;-49
2021/04/15 01:31:58;;;;;;;0.93;0.57;;;3.80;99.90;;;;;;13082846;22;20033;-49
2021/04/15 01:37:38;;;;;;;3.58;0.30;;;3.70;99.90;;;;;;13068539;22;20015;-49
2021/04/15 01:43:18;;;;;;;0.88;0.52;;;3.60;99.90;;;;;;13086914;22;20706;-49
2021/04/15 01:48:45;;;;;;;0.77;0.38;;;3.60;99.90;;;;;;13083191;22;20029;-49
2021/04/15 01:54:16;;;;;;;10.10;0.90;;;3.60;99.90;;;;;;13082946;22;19995;-49
2021/04/15 01:59:45;;;;;;;1.13;0.65;;;3.60;99.90;;;;;;13082744;22;20547;-49
2021/04/15 02:05:23;;;;;;;1.67;0.80;;;3.60;99.90;;;;;;13087765;22;20014;-49
2021/04/15 02:10:49;;;;;;;2.28;0.68;;;3.50;99.90;;;;;;13090923;22;20042;-49
2021/04/15 02:16:16;;;;;;;3.00;0.88;;;3.40;99.90;;;;;;13082901;22;20027;-48
2021/04/15 02:22:11;;;;;;;2.50;1.00;;;3.40;99.90;;;;;;13089666;22;20014;-49
2021/04/15 02:27:47;;;;;;;2.03;0.98;;;3.30;99.90;;;;;;13084067;22;20494;-49
2021/04/15 02:33:25;;;;;;;2.53;0.85;;;3.20;99.90;;;;;;13082607;22;20003;-49
2021/04/15 02:38:55;;;;;;;2.13;1.20;;;3.00;99.90;;;;;;13082198;22;20064;-49
2021/04/15 02:44:24;;;;;;;1.75;0.70;;;3.00;99.90;;;;;;13085990;22;20490;-49
2021/04/15 02:49:49;;;;;;;1.45;0.70;;;2.90;99.90;;;;;;13081205;22;20087;-49
2021/04/15 02:55:17;;;;;;;3.03;1.13;;;2.90;99.90;;;;;;13080272;22;20012;-49
2021/04/15 03:00:41;;;;;;;2.67;1.63;;;2.90;99.90;;;;;;13081276;22;20007;-49
2021/04/15 03:06:10;;;;;;;3.08;1.48;;;2.90;99.90;;;;;;13080807;22;20019;-49
2021/04/15 03:11:51;;;;;;;4.28;1.90;;;2.80;99.90;;;;;;13081335;22;20011;-49
2021/04/15 03:17:14;;;;;;;5.93;1.92;;;2.80;99.90;;;;;;13080230;22;20010;-49
2021/04/15 03:22:44;;;;;;;3.42;1.50;;;2.70;99.90;;;;;;13083133;22;20014;-49
2021/04/15 03:28:34;;;;;;;4.20;1.63;;;2.70;99.90;;;;;;13082682;22;20013;-48
2021/04/15 03:33:59;;;;;;;;;;;2.70;99.90;;;;;;13081616;22;20017;-48
2021/04/15 03:39:33;;;;;;;3.35;1.27;;;2.60;99.90;;;;;;13085235;22;20242;-48
2021/04/15 03:45:03;;;;;;;2.75;1.25;;;2.60;99.90;;;;;;13079587;22;20006;-49
2021/04/15 03:50:29;;;;;;;8.18;1.65;;;2.50;99.90;;;;;;13081746;22;20170;-48
2021/04/15 03:55:57;;;;;;;3.88;1.65;;;2.50;99.90;;;;;;13082235;22;20031;-49
2021/04/15 04:01:22;;;;;;;2.83;1.30;;;2.40;99.90;;;;;;13083088;22;20510;-48
2021/04/15 04:06:46;;;;;;;8.80;1.63;;;2.40;99.90;;;;;;13079633;22;20037;-49
2021/04/15 04:12:17;;;;;;;2.65;1.13;;;2.20;99.90;;;;;;13080789;22;20010;-49
2021/04/15 04:18:01;;;;;;;2.95;1.35;;;2.20;99.90;;;;;;13080766;22;20061;-49
2021/04/15 04:23:37;;;;;;;4.45;2.03;;;2.30;99.90;;;;;;13082924;22;20024;-49
2021/04/15 04:29:27;;;;;;;2.90;1.20;;;2.20;99.90;;;;;;13080457;22;20014;-49
2021/04/15 04:34:59;;;;;;;11.00;2.58;;;2.20;99.90;;;;;;13081579;22;20222;-49
2021/04/15 04:40:29;;;;;;;2.13;1.20;;;2.20;99.90;;;;;;13084424;22;20093;-49
2021/04/15 04:45:56;;;;;;;7.28;1.77;;;2.20;99.90;;;;;;13079087;22;20680;-49
2021/04/15 04:51:20;;;;;;;7.03;1.30;;;2.20;99.90;;;;;;13082594;22;20022;-49
2021/04/15 04:56:46;;;;;;;4.00;1.42;;;2.20;99.90;;;;;;13079874;22;20090;-49
2021/04/15 05:02:07;;;;;;;1.95;0.55;;;2.10;99.90;;;;;;13080363;22;20399;-49
2021/04/15 05:07:31;;;;;;;2.85;1.23;;;2.20;99.90;;;;;;13078715;22;20358;-49
2021/04/15 05:13:17;;;;;;;3.03;0.80;;;2.20;99.90;;;;;;13080744;22;20015;-49
2021/04/15 05:18:39;;;;;;;2.90;1.30;;;2.20;99.90;;;;;;13078860;22;20314;-49
2021/04/15 05:24:12;;;;;;;3.10;1.13;;;2.20;99.90;;;;;;13079289;22;20423;-49
2021/04/15 05:29:39;;;;;;;9.43;3.10;;;2.20;99.90;;;;;;13078793;22;20029;-49
2021/04/15 05:35:00;;;;;;;6.10;3.38;;;2.30;99.90;;;;;;13068812;22;20003;-49
2021/04/15 05:40:21;;;;;;;5.13;2.15;;;2.20;99.90;;;;;;13081399;22;20019;-49
2021/04/15 05:45:45;;;;;;;3.33;1.35;;;2.20;99.90;;;;;;13083560;22;20014;-49
2021/04/15 05:51:12;;;;;;;2.85;1.00;;;2.30;99.90;;;;;;13086011;22;20345;-49
2021/04/15 05:56:38;;;;;;;2.72;1.25;;;2.30;99.90;;;;;;13077779;22;20094;-49
2021/04/15 06:02:32;;;;;;;15.60;5.65;;;2.50;99.90;;;;;;13083528;22;20528;-49
2021/04/15 06:07:56;;;;;;;2.22;1.20;;;2.60;99.90;;;;;;13087139;22;20521;-49
2021/04/15 06:13:44;;;;;;;5.30;1.42;;;2.90;99.90;;;;;;13092545;22;20338;-49
2021/04/15 06:19:20;;;;;;;1.83;0.90;;;3.30;99.90;;;;;;13082413;22;20090;-49
2021/04/15 06:24:44;;;;;;;1.50;1.20;;;3.50;99.90;;;;;;13066112;22;20026;-49
2021/04/15 06:30:11;;;;;;;1.85;0.30;;;3.80;99.90;;;;;;13078245;22;20353;-49
2021/04/15 06:35:34;;;;;;;0.55;0.28;;;4.30;99.90;;;;;;13073013;22;20011;-49
2021/04/15 06:41:01;;;;;;;3.97;0.90;;;4.60;99.90;;;;;;13081330;22;20041;-49
2021/04/15 06:46:22;;;;;;;2.63;0.85;;;5.00;99.90;;;;;;13080163;22;20015;-49
2021/04/15 06:52:06;;;;;;;2.50;0.52;;;5.10;99.90;;;;;;13078435;22;20015;-49
2021/04/15 06:58:05;;;;;;;5.55;0.75;;;5.20;99.90;;;;;;13081992;22;20037;-49
2021/04/15 07:03:57;;;;;;;1.45;0.75;;;5.20;99.90;;;;;;13078742;22;20021;-49
2021/04/15 07:09:30;;;;;;;5.00;1.38;;;5.40;99.90;;;;;;13080743;22;20022;-49
2021/04/15 07:15:15;;;;;;;1.17;0.40;;;5.40;99.90;;;;;;13065392;22;20129;-49
2021/04/15 07:21:10;;;;;;;1.05;0.40;;;5.40;99.90;;;;;;13066913;22;20120;-49
2021/04/15 07:26:37;;;;;;;1.23;0.40;;;5.60;99.90;;;;;;13083037;22;20030;-49
2021/04/15 07:32:33;;;;;;;4.35;0.85;;;5.80;99.90;;;;;;13083687;22;20338;-49
2021/04/15 07:38:15;;;;;;;0.60;0.20;;;6.40;99.90;;;;;;13057000;22;20100;-49
2021/04/15 07:44:06;;;;;;;1.20;0.35;;;6.80;99.90;;;;;;13075196;22;20042;-49
2021/04/15 07:49:48;;;;;;;0.52;0.20;;;6.60;99.90;;;;;;13076380;22;20015;-49
2021/04/15 07:55:47;;;;;;;0.90;0.30;;;6.90;99.90;;;;;;13078649;22;20003;-49
2021/04/15 08:01:40;;;;;;;2.35;0.30;;;7.30;99.90;;;;;;13053816;22;20030;-49
2021/04/15 08:07:34;;;;;;;1.40;0.45;;;7.40;99.90;;;;;;13052458;22;20098;-49
2021/04/15 08:13:46;;;;;;;2.63;0.40;;;7.40;99.90;;;;;;13082442;22;20570;-49
2021/04/15 08:19:35;;;;;;;1.42;0.45;;;7.40;99.90;;;;;;13084051;22;20037;-48
2021/04/15 08:25:14;;;;;;;0.40;0.40;;;7.40;99.90;;;;;;13082930;22;20402;-48
2021/04/15 08:31:17;;;;;;;1.23;0.47;;;7.50;99.90;;;;;;13084372;22;20014;-49
2021/04/15 08:37:00;;;;;;;0.93;0.22;;;7.60;99.90;;;;;;13080174;22;20467;-48
2021/04/15 08:42:35;;;;;;;1.23;0.50;;;8.30;99.90;;;;;;13085392;22;20026;-49
2021/04/15 08:48:08;;;;;;;1.25;0.50;;;8.20;99.90;;;;;;13081300;22;20283;-49
2021/04/15 08:53:46;;;;;;;2.10;0.77;;;8.10;99.90;;;;;;13081790;22;20033;-49
2021/04/15 08:59:32;;;;;;;1.73;0.40;;;8.20;99.90;;;;;;13078063;22;20026;-49
2021/04/15 09:05:09;;;;;;;1.88;0.68;;;8.10;99.90;;;;;;13078689;22;20450;-49
2021/04/15 09:10:30;;;;;;;1.15;0.38;;;8.20;99.90;;;;;;13076688;22;20003;-49
2021/04/15 09:16:15;;;;;;;1.75;0.50;;;8.40;99.90;;;;;;13075962;22;20317;-49
2021/04/15 09:21:47;;;;;;;0.85;0.43;;;8.60;99.90;;;;;;13081339;22;20014;-49
2021/04/15 09:27:45;;;;;;;4.90;0.20;;;8.80;99.90;;;;;;13082956;22;20443;-49
2021/04/15 09:33:27;;;;;;;0.95;0.50;;;9.40;99.90;;;;;;13079878;22;20377;-49
2021/04/15 09:39:16;;;;;;;1.48;0.30;;;9.60;99.90;;;;;;13080611;22;20343;-49
2021/04/15 09:44:55;;;;;;;0.85;0.30;;;9.50;99.90;;;;;;13081216;22;20061;-49
2021/04/15 09:50:43;;;;;;;0.90;0.30;;;8.90;99.90;;;;;;13081137;22;20010;-49
2021/04/15 09:56:16;;;;;;;0.88;0.20;;;9.50;99.90;;;;;;13081597;22;20017;-49
2021/04/15 10:01:45;;;;;;;1.15;0.32;;;9.90;99.90;;;;;;13077700;22;20507;-49
2021/04/15 10:07:16;;;;;;;0.60;0.27;;;10.30;99.90;;;;;;13084462;22;20469;-49
2021/04/15 10:12:56;;;;;;;0.88;0.30;;;10.10;99.90;;;;;;13082403;22;20034;-49
2021/04/15 10:19:08;;;;;;;1.10;0.38;;;9.70;99.90;;;;;;13082251;22;20014;-49
2021/04/15 10:24:32;;;;;;;0.93;0.30;;;9.70;99.90;;;;;;13011688;22;20446;-49
2021/04/15 10:30:14;;;;;;;0.57;0.32;;;9.90;99.90;;;;;;13084869;22;20097;-49
2021/04/15 10:36:13;;;;;;;1.73;0.43;;;10.90;99.90;;;;;;13081363;22;20624;-49
2021/04/15 10:42:16;;;;;;;1.42;0.45;;;11.50;99.90;;;;;;13080261;22;20060;-49
2021/04/15 10:48:13;;;;;;;0.88;0.40;;;11.20;99.90;;;;;;13079314;22;20027;-49
2021/04/15 10:54:20;;;;;;;1.48;0.50;;;11.40;99.90;;;;;;13074732;22;20015;-49
2021/04/15 10:59:44;;;;;;;0.65;0.20;;;12.00;99.90;;;;;;13037243;22;20094;-49
2021/04/15 11:05:26;;;;;;;0.77;0.20;;;12.30;99.90;;;;;;13077080;22;20032;-48
2021/04/15 11:10:47;;;;;;;0.95;0.40;;;12.80;99.80;;;;;;13077267;22;20107;-48
2021/04/15 11:16:21;;;;;;;1.13;0.40;;;12.70;96.80;;;;;;13073987;22;20122;-48
2021/04/15 11:21:44;;;;;;;0.28;0.13;;;12.50;96.60;;;;;;13076206;22;20022;-47
2021/04/15 11:27:06;;;;;;;0.93;0.20;;;11.90;99.10;;;;;;13074831;22;20106;-48
2021/04/15 11:32:43;;;;;;;1.27;0.52;;;12.40;98.50;;;;;;13058691;22;20017;-48
2021/04/15 11:38:20;;;;;;;0.70;0.30;;;12.30;98.00;;;;;;13070349;22;20486;-48
2021/04/15 11:43:42;;;;;;;2.50;0.57;;;11.60;99.90;;;;;;13077237;22;20475;-48
2021/04/15 11:49:12;;;;;;;0.68;0.20;;;11.50;97.90;;;;;;13077338;22;20014;-48
2021/04/15 11:54:44;;;;;;;1.27;0.40;;;10.80;99.90;;;;;;13068937;22;20628;-48
2021/04/15 12:00:15;;;;;;;1.15;0.22;;;10.30;99.90;;;;;;13055482;22;20011;-48
2021/04/15 12:05:42;;;;;;;0.80;0.30;;;9.90;99.90;;;;;;13063636;22;20031;-48
2021/04/15 12:11:19;;;;;;;1.35;0.45;;;9.90;99.90;;;;;;13067167;22;20011;-48
2021/04/15 12:17:10;;;;;;;1.58;0.30;;;9.80;99.90;;;;;;13056408;22;20014;-47
2021/04/15 12:23:26;;;;;;;1.05;0.40;;;10.00;99.90;;;;;;13063409;22;20023;-48
2021/04/15 12:29:11;;;;;;;1.40;0.43;;;10.60;99.90;;;;;;12965030;22;20508;-48
2021/04/15 12:34:35;;;;;;;0.90;0.30;;;12.50;96.20;;;;;;13061097;22;20018;-48
2021/04/15 12:40:02;;;;;;;0.80;0.50;;;12.70;91.70;;;;;;13071316;22;20060;-48
2021/04/15 12:45:44;;;;;;;1.70;0.55;;;11.80;94.30;;;;;;13071785;22;20025;-48
2021/04/15 12:51:07;;;;;;;0.65;0.28;;;11.50;98.20;;;;;;13057371;22;20007;-48
2021/04/15 12:56:39;;;;;;;0.77;0.30;;;12.30;91.40;;;;;;13075634;22;20410;-48
2021/04/15 13:02:01;;;;;;;1.70;0.30;;;13.10;91.20;;;;;;13072132;22;20030;-48
2021/04/15 13:07:22;;;;;;;1.10;0.47;;;13.60;85.50;;;;;;13074083;22;20431;-48
2021/04/15 13:12:44;;;;;;;3.13;0.70;;;13.20;94.50;;;;;;13067939;22;20049;-48
2021/04/15 13:18:09;;;;;;;2.90;0.70;;;11.90;99.00;;;;;;13079588;22;20336;-48
2021/04/15 13:23:37;;;;;;;1.05;0.52;;;11.20;99.90;;;;;;13071037;22;20088;-48
2021/04/15 13:29:11;;;;;;;0.77;0.43;;;10.50;99.90;;;;;;13068055;22;20017;-48
2021/04/15 13:34:59;;;;;;;2.60;1.13;;;10.30;99.90;;;;;;13064824;22;20655;-48
2021/04/15 13:40:25;;;;;;;1.80;0.98;;;10.70;99.90;;;;;;13068614;22;20050;-48
2021/04/15 13:45:46;;;;;;;0.82;0.50;;;13.00;99.90;;;;;;13074503;22;20362;-48
2021/04/15 13:51:17;;;;;;;2.05;0.88;;;15.20;92.10;;;;;;13064337;22;20094;-49
2021/04/15 13:56:49;;;;;;;1.30;0.70;;;16.00;85.40;;;;;;13069809;22;20476;-49
2021/04/15 14:02:13;;;;;;;1.85;0.60;;;15.50;84.70;;;;;;13070878;22;20011;-48
2021/04/15 14:07:35;;;;;;;2.33;1.02;;;14.10;90.50;;;;;;13075863;22;20027;-48
2021/04/15 14:13:02;;;;;;;3.65;0.98;;;12.80;95.60;;;;;;13067578;22;20010;-48
2021/04/15 14:18:32;;;;;;;2.38;0.70;;;12.20;99.90;;;;;;13068544;22;20573;-47
2021/04/15 14:23:55;;;;;;;;;;;12.80;99.00;;;;;;13066905;22;20014;-48
2021/04/15 14:29:20;;;;;;;1.05;0.57;;;12.70;99.90;;;;;;13064696;22;20242;-48
2021/04/15 14:34:50;;;;;;;3.63;1.00;;;12.70;99.90;;;;;;13068995;22;20504;-47
2021/04/15 14:40:33;;;;;;;3.75;1.10;;;12.20;99.90;;;;;;13071620;22;20289;-48
2021/04/15 14:45:55;;;;;;;4.97;1.05;;;11.30;99.90;;;;;;13070099;22;20099;-48
2021/04/15 14:51:25;;;;;;;2.97;0.80;;;10.70;99.90;;;;;;13065442;22;20045;-48
2021/04/15 14:56:48;;;;;;;2.50;1.10;;;10.50;99.90;;;;;;13066489;22;20104;-47
2021/04/15 15:02:20;;;;;;;2.22;1.35;;;10.80;99.90;;;;;;13078127;22;20053;-47
2021/04/15 15:07:42;;;;;;;2.42;1.05;;;11.10;99.90;;;;;;13074791;22;20035;-47
2021/04/15 15:13:03;;;;;;;3.03;1.30;;;11.10;99.90;;;;;;13064727;22;20033;-47
2021/04/15 15:18:29;;;;;;;1.80;0.55;;;11.00;99.90;;;;;;13077683;22;20006;-47
2021/04/15 15:24:05;;;;;;;3.53;0.95;;;10.70;99.90;;;;;;13068144;22;20018;-47
2021/04/15 15:29:28;;;;;;;2.00;1.02;;;10.40;99.90;;;;;;13066531;22;20109;-47
2021/04/15 15:34:56;;;;;;;1.13;0.50;;;10.30;99.90;;;;;;13061484;22;20087;-48
2021/04/15 15:40:40;;;;;;;3.65;1.33;;;10.60;99.90;;;;;;13074350;22;20006;-47
2021/04/15 15:46:12;;;;;;;1.48;0.50;;;11.10;99.90;;;;;;13066694;22;20011;-48
2021/04/15 15:51:44;;;;;;;2.20;0.77;;;11.20;99.90;;;;;;13063322;22;20405;-47
2021/04/15 15:57:20;;;;;;;2.00;0.70;;;11.00;99.90;;;;;;13065357;22;20007;-47
2021/04/15 16:02:46;;;;;;;1.85;0.63;;;10.70;99.90;;;;;;13066642;22;20407;-48
2021/04/15 16:08:10;;;;;;;2.88;0.65;;;10.30;99.90;;;;;;13067060;22;20023;-47
2021/04/15 16:13:31;;;;;;;5.03;0.98;;;10.10;99.90;;;;;;13058506;22;20553;-48
2021/04/15 16:18:52;;;;;;;1.77;0.68;;;9.80;99.90;;;;;;13062077;22;20049;-47
2021/04/15 16:24:28;;;;;;;4.88;0.80;;;9.90;99.90;;;;;;13056389;22;20011;-47
2021/04/15 16:29:50;;;;;;;1.98;0.77;;;9.90;99.90;;;;;;13065293;22;20042;-47
2021/04/15 16:35:12;;;;;;;2.33;0.95;;;9.90;99.90;;;;;;13066870;22;20006;-47
2021/04/15 16:40:33;;;;;;;1.05;0.50;;;10.00;99.90;;;;;;13072945;22;20038;-47
2021/04/15 16:45:57;;;;;;;1.48;0.68;;;10.00;99.90;;;;;;13074392;22;20095;-47
2021/04/15 16:51:17;;;;;;;1.38;0.50;;;9.80;99.90;;;;;;13074241;22;20056;-47
2021/04/15 16:56:38;;;;;;;2.65;0.55;;;9.60;99.90;;;;;;13075054;22;20323;-47
2021/04/15 17:02:00;;;;;;;1.48;0.63;;;9.70;99.90;;;;;;13074490;22;20423;-47
2021/04/15 17:07:25;;;;;;;2.05;0.60;;;9.60;99.90;;;;;;13069094;22;20031;-48
2021/04/15 17:12:46;;;;;;;1.48;0.50;;;9.40;99.90;;;;;;13072138;22;20018;-48
2021/04/15 17:18:07;;;;;;;3.15;0.68;;;9.30;99.90;;;;;;13070347;22;20053;-48
2021/04/15 17:23:28;;;;;;;2.17;0.70;;;9.20;99.90;;;;;;13073869;22;20011;-48
2021/04/15 17:28:50;;;;;;;3.08;1.42;;;9.10;99.90;;;;;;13071104;22;20242;-48
2021/04/15 17:34:12;;;;;;;1.20;0.30;;;9.10;99.90;;;;;;13071221;22;20544;-48
2021/04/15 17:39:33;;;;;;;2.22;1.02;;;9.00;99.90;;;;;;13069336;22;20015;-48
2021/04/15 17:44:53;;;;;;;0.90;0.30;;;8.90;99.90;;;;;;13074052;22;20021;-47
2021/04/15 17:50:17;;;;;;;1.55;0.70;;;8.90;99.90;;;;;;13072245;22;20266;-48
2021/04/15 17:55:39;;;;;;;1.42;0.40;;;8.80;99.90;;;;;;13073681;22;20011;-47
2021/04/15 18:01:03;;;;;;;3.17;0.63;;;8.80;99.90;;;;;;13070407;22;20105;-48
2021/04/15 18:06:25;;;;;;;1.02;0.40;;;8.70;99.90;;;;;;13082950;22;20026;-48
2021/04/15 18:11:46;;;;;;;1.40;0.52;;;8.60;99.90;;;;;;13081478;22;20103;-48
2021/04/15 18:17:07;;;;;;;0.95;0.60;;;8.50;99.90;;;;;;13077225;22;20007;-48
2021/04/15 18:22:28;;;;;;;1.25;0.50;;;8.50;99.90;;;;;;13076542;22;20015;-48
2021/04/15 18:27:50;;;;;;;3.42;0.90;;;8.40;99.90;;;;;;13075186;22;20076;-47
2021/04/15 18:33:14;;;;;;;1.90;0.60;;;8.30;99.90;;;;;;13075761;22;20011;-47
2021/04/15 18:38:57;;;;;;;1.98;0.55;;;8.30;99.90;;;;;;13083287;22;20315;-47
2021/04/15 18:50:24;;;;;;;3.20;0.50;;;8.10;99.90;;;;;;12942671;22;20489;-46
2021/04/15 18:55:45;;;;;;;3.40;1.00;;;8.00;99.90;;;;;;13088608;22;20048;-46
2021/04/15 19:01:09;;;;;;;4.18;0.55;;;8.00;99.90;;;;;;13064379;22;20092;-45
2021/04/15 19:06:30;;;;;;;2.08;0.52;;;7.90;99.90;;;;;;13077924;22;20042;-45
2021/04/15 19:11:51;;;;;;;3.30;0.60;;;7.90;99.90;;;;;;13068179;22;20017;-46
2021/04/15 19:17:13;;;;;;;1.30;0.47;;;7.80;99.90;;;;;;13070124;22;20504;-45
2021/04/15 19:22:34;;;;;;;1.27;0.45;;;7.80;99.90;;;;;;13068129;22;20021;-45
2021/04/15 19:27:57;;;;;;;0.65;0.35;;;7.70;99.90;;;;;;13073584;22;20025;-45
2021/04/15 19:33:18;;;;;;;2.00;0.60;;;7.70;99.90;;;;;;13075873;22;20095;-45
2021/04/15 19:38:39;;;;;;;2.47;0.57;;;7.70;99.90;;;;;;13074513;22;20474;-45
2021/04/15 19:44:00;;;;;;;1.02;0.30;;;7.60;99.90;;;;;;13080392;22;20017;-46
2021/04/15 19:49:21;;;;;;;1.42;0.30;;;7.60;99.90;;;;;;13075579;22;20026;-46
2021/04/15 19:54:42;;;;;;;3.13;0.60;;;7.60;99.90;;;;;;13077618;22;20413;-45
2021/04/15 20:00:13;;;;;;;2.00;0.80;;;7.50;99.90;;;;;;13074271;22;20009;-45
2021/04/15 20:05:34;;;;;;;2.00;0.55;;;7.40;99.90;;;;;;13072497;22;20041;-45
2021/04/15 20:11:07;;;;;;;1.70;1.00;;;7.40;99.90;;;;;;13076606;22;20035;-45
2021/04/15 20:16:30;;;;;;;1.98;0.55;;;7.40;99.90;;;;;;13075192;22;20015;-45
2021/04/15 20:21:51;;;;;;;1.05;0.40;;;7.30;99.90;;;;;;13075608;22;20025;-45
2021/04/15 20:27:12;;;;;;;5.82;0.55;;;7.30;99.90;;;;;;13074670;22;20183;-46
2021/04/15 20:32:34;;;;;;;1.75;0.40;;;7.20;99.90;;;;;;13076333;22;20007;-46
2021/04/15 20:37:55;;;;;;;1.08;0.50;;;7.10;99.90;;;;;;13077844;22;20346;-45
2021/04/15 20:43:17;;;;;;;1.08;0.47;;;7.00;99.90;;;;;;13081901;22;20485;-45
2021/04/15 20:48:38;;;;;;;1.60;0.50;;;6.90;99.90;;;;;;13076026;22;20085;-45
2021/04/15 20:53:59;;;;;;;2.80;0.77;;;6.90;99.90;;;;;;13073880;22;20013;-45
2021/04/15 21:00:07;;;;;;;1.83;0.50;;;6.90;99.90;;;;;;13050169;22;20007;-45
2021/04/15 21:12:08;;;;;;;1.73;0.50;;;6.70;99.90;;;;;;12966371;22;20033;-45
2021/04/15 21:18:04;;;;;;;1.85;0.40;;;6.60;99.90;;;;;;13051585;22;20084;-46
2021/04/15 21:24:05;;;;;;;1.02;0.30;;;6.50;99.90;;;;;;13030299;22;20026;-46
2021/04/15 21:29:49;;;;;;;1.85;0.50;;;6.40;99.90;;;;;;13047699;22;20022;-45
2021/04/15 21:41:41;;;;;;;0.40;0.10;;;6.30;99.90;;;;;;13023646;22;20006;-45
2021/04/15 21:47:03;;;;;;;1.23;0.40;;;6.30;99.90;;;;;;13081833;22;20625;-45
2021/04/15 21:52:41;;;;;;;1.63;0.70;;;6.20;99.90;;;;;;13054432;22;20060;-45
2021/04/15 21:58:18;;;;;;;1.42;0.35;;;6.10;99.90;;;;;;13094091;22;20014;-45
2021/04/15 22:03:43;;;;;;;1.00;0.32;;;6.00;99.90;;;;;;13085960;22;20091;-45
2021/04/15 22:09:12;;;;;;;0.82;0.28;;;5.90;99.90;;;;;;13072426;22;20071;-45
2021/04/15 22:14:38;;;;;;;;;;;5.80;99.90;;;;;;13071021;22;20037;-45
2021/04/15 22:20:03;;;;;;;0.50;0.20;;;5.70;99.90;;;;;;13061524;22;19906;-45
2021/04/15 22:25:35;;;;;;;1.55;0.47;;;5.70;99.90;;;;;;13069351;22;20047;-45
2021/04/15 22:30:59;;;;;;;0.30;0.20;;;5.60;99.90;;;;;;13083105;22;20011;-45
2021/04/15 22:36:21;;;;;;;1.45;0.40;;;5.50;99.90;;;;;;13068781;22;20015;-45
2021/04/15 22:41:45;;;;;;;0.63;0.22;;;5.50;99.90;;;;;;13077874;22;20057;-45
2021/04/15 22:47:13;;;;;;;1.15;0.40;;;5.40;99.90;;;;;;13100422;22;20014;-45
2021/04/15 22:52:35;;;;;;;1.05;0.57;;;5.30;99.90;;;;;;13098611;22;20022;-45
2021/04/15 22:57:57;;;;;;;0.88;0.28;;;5.20;99.90;;;;;;13080421;22;20560;-45
2021/04/15 23:03:19;;;;;;;0.63;0.22;;;5.20;99.90;;;;;;13093475;22;20510;-45
2021/04/15 23:08:40;;;;;;;0.30;0.10;;;5.10;99.90;;;;;;13096205;22;20041;-45
2021/04/15 23:14:01;;;;;;;2.38;0.20;;;5.10;99.90;;;;;;13074254;22;20053;-46
2021/04/15 23:19:22;;;;;;;1.05;0.30;;;5.00;99.90;;;;;;13092543;22;20015;-45
2021/04/15 23:24:43;;;;;;;0.15;0.10;;;5.00;99.90;;;;;;13094692;22;20025;-46
2021/04/15 23:30:05;;;;;;;0.63;0.22;;;4.80;99.90;;;;;;13094225;22;20094;-46
2021/04/15 23:35:27;;;;;;;0.70;0.22;;;4.70;99.90;;;;;;13096460;22;20346;-45
2021/04/15 23:40:51;;;;;;;4.55;0.38;;;4.70;99.90;;;;;;13096163;22;20002;-46
2021/04/15 23:46:12;;;;;;;0.57;0.38;;;4.60;99.90;;;;;;13074562;22;20088;-46
2021/04/15 23:51:33;;;;;;;0.63;0.22;;;4.50;99.90;;;;;;13090809;22;20446;-45
2021/04/15 23:56:54;;;;;;;0.85;0.45;;;4.40;99.90;;;;;;13088800;22;20373;-45
